createdAt,value
2017-04-11T00:00:53.451Z,7.45
2017-04-11T00:01:53.983Z,7.42
2017-04-11T00:02:54.517Z,7.40
2017-04-11T00:03:55.045Z,7.35
2017-04-11T00:04:55.575Z,7.34
2017-04-11T00:05:56.104Z,7.31
2017-04-11T00:06:56.633Z,7.30
2017-04-11T00:07:57.163Z,7.27
2017-04-11T00:08:57.696Z,7.23
2017-04-11T00:09:58.225Z,7.19
2017-04-11T00:10:58.908Z,7.16
2017-04-11T00:11:59.288Z,7.12
2017-04-11T00:12:59.820Z,7.08
2017-04-11T00:14:00.356Z,7.09
2017-04-11T00:15:00.884Z,7.07
2017-04-11T00:16:01.421Z,7.04
2017-04-11T00:17:03.752Z,7.02
2017-04-11T00:18:02.492Z,7.02
2017-04-11T00:19:03.025Z,7.00
2017-04-11T00:20:03.575Z,6.97
2017-04-11T00:21:04.105Z,6.93
2017-04-11T00:22:04.639Z,6.89
2017-04-11T00:23:05.155Z,6.86
2017-04-11T00:24:05.686Z,6.84
2017-04-11T00:25:06.219Z,6.81
2017-04-11T00:26:06.753Z,6.82
2017-04-11T00:27:07.282Z,6.81
2017-04-11T00:28:07.811Z,6.78
2017-04-11T00:29:08.342Z,6.78
2017-04-11T00:30:08.874Z,6.77
2017-04-11T00:31:09.400Z,6.77
2017-04-11T00:32:09.935Z,6.78
2017-04-11T00:33:10.462Z,6.77
2017-04-11T00:34:10.992Z,6.74
2017-04-11T00:35:11.526Z,6.70
2017-04-11T00:36:12.056Z,6.66
2017-04-11T00:37:12.584Z,6.63
2017-04-11T00:38:13.114Z,6.59
2017-04-11T00:39:13.642Z,6.56
2017-04-11T00:40:14.174Z,6.51
2017-04-11T00:41:14.705Z,6.49
2017-04-11T00:42:15.239Z,6.49
2017-04-11T00:43:15.773Z,6.51
2017-04-11T00:44:16.306Z,6.55
2017-04-11T00:45:16.829Z,6.55
2017-04-11T00:46:17.362Z,6.47
2017-04-11T00:47:17.891Z,6.43
2017-04-11T00:48:18.422Z,6.41
2017-04-11T00:49:19.108Z,6.43
2017-04-11T00:50:19.480Z,6.41
2017-04-11T00:51:20.161Z,6.43
2017-04-11T00:52:20.541Z,6.47
2017-04-11T00:53:21.070Z,6.45
2017-04-11T00:54:21.748Z,6.43
2017-04-11T00:55:22.132Z,6.40
2017-04-11T00:56:22.666Z,6.38
2017-04-11T00:57:23.200Z,6.38
2017-04-11T00:58:23.737Z,6.40
2017-04-11T00:59:24.271Z,6.37
2017-04-11T01:00:24.808Z,6.37
2017-04-11T01:01:25.492Z,6.36
2017-04-11T01:02:25.868Z,6.33
2017-04-11T01:03:26.553Z,6.31
2017-04-11T01:04:26.934Z,6.26
2017-04-11T01:05:27.469Z,6.22
2017-04-11T01:06:29.196Z,6.18
2017-04-11T01:07:28.677Z,6.16
2017-04-11T01:08:29.060Z,6.14
2017-04-11T01:09:29.589Z,6.14
2017-04-11T01:10:30.124Z,6.09
2017-04-11T01:11:30.649Z,6.06
2017-04-11T01:12:31.184Z,6.02
2017-04-11T01:13:31.712Z,6.00
2017-04-11T01:14:32.245Z,6.03
2017-04-11T01:15:32.776Z,6.04
2017-04-11T01:16:33.311Z,6.06
2017-04-11T01:17:34.090Z,6.04
2017-04-11T01:18:34.371Z,6.04
2017-04-11T01:19:35.053Z,6.04
2017-04-11T01:20:35.437Z,6.09
2017-04-11T01:21:35.965Z,6.12
2017-04-11T01:22:36.493Z,6.15
2017-04-11T01:23:37.024Z,6.15
2017-04-11T01:24:37.581Z,6.14
2017-04-11T01:25:38.082Z,6.14
2017-04-11T01:26:38.617Z,6.11
2017-04-11T01:27:39.145Z,6.08
2017-04-11T01:28:39.677Z,6.04
2017-04-11T01:29:40.208Z,6.02
2017-04-11T01:30:40.743Z,6.00
2017-04-11T01:31:41.274Z,5.99
2017-04-11T01:32:41.803Z,5.99
2017-04-11T01:33:42.334Z,5.96
2017-04-11T01:34:42.865Z,5.92
2017-04-11T01:35:43.397Z,5.91
2017-04-11T01:36:43.929Z,5.91
2017-04-11T01:37:44.464Z,5.86
2017-04-11T01:38:45.002Z,5.86
2017-04-11T01:39:45.683Z,5.84
2017-04-11T01:40:46.070Z,5.82
2017-04-11T01:41:46.598Z,5.82
2017-04-11T01:42:47.132Z,5.82
2017-04-11T01:43:47.665Z,5.84
2017-04-11T01:44:48.195Z,5.82
2017-04-11T01:45:48.724Z,5.82
2017-04-11T01:46:49.258Z,5.81
2017-04-11T01:47:49.825Z,5.79
2017-04-11T01:48:50.322Z,5.79
2017-04-11T01:49:50.850Z,5.78
2017-04-11T01:50:51.385Z,5.77
2017-04-11T01:51:51.915Z,5.73
2017-04-11T01:52:52.596Z,5.71
2017-04-11T01:53:52.975Z,5.71
2017-04-11T01:54:53.512Z,5.70
2017-04-11T01:55:54.038Z,5.70
2017-04-11T01:56:54.574Z,5.68
2017-04-11T01:57:55.101Z,5.68
2017-04-11T01:58:55.631Z,5.71
2017-04-11T01:59:56.164Z,5.70
2017-04-11T02:00:56.707Z,5.71
2017-04-11T02:01:57.224Z,5.71
2017-04-11T02:02:57.758Z,5.70
2017-04-11T02:03:58.299Z,5.70
2017-04-11T02:04:58.827Z,5.67
2017-04-11T02:05:59.353Z,5.67
2017-04-11T02:06:59.888Z,5.67
2017-04-11T02:08:00.414Z,5.67
2017-04-11T02:09:00.952Z,5.67
2017-04-11T02:10:01.482Z,5.64
2017-04-11T02:11:02.013Z,5.60
2017-04-11T02:12:02.698Z,5.62
2017-04-11T02:13:03.229Z,5.60
2017-04-11T02:14:03.608Z,5.60
2017-04-11T02:15:04.140Z,5.62
2017-04-11T02:16:04.669Z,5.62
2017-04-11T02:17:05.204Z,5.63
2017-04-11T02:18:05.735Z,5.66
2017-04-11T02:19:06.265Z,5.66
2017-04-11T02:20:06.798Z,5.66
2017-04-11T02:21:07.339Z,5.64
2017-04-11T02:22:07.870Z,5.63
2017-04-11T02:23:08.404Z,5.60
2017-04-11T02:24:09.113Z,5.57
2017-04-11T02:25:09.472Z,5.57
2017-04-11T02:26:10.008Z,5.57
2017-04-11T02:27:10.532Z,5.59
2017-04-11T02:28:11.063Z,5.59
2017-04-11T02:29:11.595Z,5.57
2017-04-11T02:30:12.136Z,5.56
2017-04-11T02:31:12.660Z,5.56
2017-04-11T02:32:13.195Z,5.53
2017-04-11T02:33:13.724Z,5.51
2017-04-11T02:34:14.246Z,5.51
2017-04-11T02:35:14.777Z,5.52
2017-04-11T02:36:15.312Z,5.48
2017-04-11T02:37:15.991Z,5.46
2017-04-11T02:38:16.524Z,5.45
2017-04-11T02:39:16.906Z,5.46
2017-04-11T02:40:17.627Z,5.46
2017-04-11T02:41:17.970Z,5.45
2017-04-11T02:42:18.498Z,5.44
2017-04-11T02:43:19.036Z,5.42
2017-04-11T02:44:19.562Z,5.41
2017-04-11T02:45:20.096Z,5.40
2017-04-11T02:46:20.648Z,5.38
2017-04-11T02:47:21.155Z,5.37
2017-04-11T02:48:21.684Z,5.37
2017-04-11T02:49:22.222Z,5.37
2017-04-11T02:50:22.746Z,5.35
2017-04-11T02:51:23.280Z,5.35
2017-04-11T02:52:23.813Z,5.38
2017-04-11T02:53:24.345Z,5.38
2017-04-11T02:54:25.024Z,5.37
2017-04-11T02:55:25.401Z,5.38
2017-04-11T02:56:25.931Z,5.37
2017-04-11T02:57:26.468Z,5.37
2017-04-11T02:58:26.999Z,5.38
2017-04-11T02:59:27.531Z,5.35
2017-04-11T03:00:28.098Z,5.34
2017-04-11T03:01:28.602Z,5.33
2017-04-11T03:02:29.136Z,5.30
2017-04-11T03:03:29.670Z,5.29
2017-04-11T03:04:30.350Z,5.29
2017-04-11T03:05:30.736Z,5.26
2017-04-11T03:06:31.264Z,5.27
2017-04-11T03:07:31.793Z,5.26
2017-04-11T03:08:32.475Z,5.26
2017-04-11T03:09:33.003Z,5.23
2017-04-11T03:10:33.391Z,5.23
2017-04-11T03:11:33.916Z,5.26
2017-04-11T03:12:34.448Z,5.29
2017-04-11T03:13:34.976Z,5.30
2017-04-11T03:14:35.509Z,5.29
2017-04-11T03:15:36.039Z,5.30
2017-04-11T03:16:36.567Z,5.27
2017-04-11T03:17:37.251Z,5.25
2017-04-11T03:18:37.627Z,5.25
2017-04-11T03:19:38.160Z,5.23
2017-04-11T03:20:38.842Z,5.22
2017-04-11T03:21:39.225Z,5.21
2017-04-11T03:22:39.758Z,5.18
2017-04-11T03:23:40.289Z,5.11
2017-04-11T03:24:40.820Z,5.11
2017-04-11T03:25:41.350Z,5.09
2017-04-11T03:26:41.886Z,5.07
2017-04-11T03:27:42.417Z,5.06
2017-04-11T03:28:42.945Z,5.04
2017-04-11T03:29:43.480Z,5.09
2017-04-11T03:30:44.009Z,5.07
2017-04-11T03:31:44.534Z,5.09
2017-04-11T03:32:45.106Z,5.14
2017-04-11T03:33:45.599Z,5.14
2017-04-11T03:34:46.128Z,5.14
2017-04-11T03:35:46.660Z,5.16
2017-04-11T03:36:47.188Z,5.16
2017-04-11T03:37:47.727Z,5.21
2017-04-11T03:38:48.280Z,5.19
2017-04-11T03:39:48.784Z,5.14
2017-04-11T03:40:49.467Z,5.10
2017-04-11T03:41:49.858Z,5.04
2017-04-11T03:42:50.545Z,5.00
2017-04-11T03:43:50.936Z,4.98
2017-04-11T03:44:51.462Z,4.98
2017-04-11T03:45:51.996Z,4.99
2017-04-11T03:46:52.527Z,4.99
2017-04-11T03:47:53.062Z,4.98
2017-04-11T03:48:54.041Z,5.00
2017-04-11T03:49:54.125Z,5.00
2017-04-11T03:50:54.655Z,5.00
2017-04-11T03:51:55.187Z,5.03
2017-04-11T03:52:55.718Z,5.07
2017-04-11T03:53:56.247Z,5.11
2017-04-11T03:54:56.779Z,5.15
2017-04-11T03:55:57.317Z,5.11
2017-04-11T03:56:57.878Z,5.14
2017-04-11T03:57:58.379Z,5.14
2017-04-11T03:58:58.907Z,5.15
2017-04-11T03:59:59.438Z,5.14
2017-04-11T04:00:59.975Z,5.16
2017-04-11T04:02:00.503Z,5.18
2017-04-11T04:03:01.036Z,5.16
2017-04-11T04:04:01.568Z,5.16
2017-04-11T04:05:02.247Z,5.15
2017-04-11T04:06:02.640Z,5.14
2017-04-11T04:07:03.162Z,5.11
2017-04-11T04:08:03.693Z,5.10
2017-04-11T04:09:04.253Z,5.06
2017-04-11T04:10:04.754Z,5.06
2017-04-11T04:11:05.288Z,5.04
2017-04-11T04:12:05.967Z,5.04
2017-04-11T04:13:06.350Z,5.04
2017-04-11T04:14:06.881Z,5.03
2017-04-11T04:15:07.406Z,5.04
2017-04-11T04:16:07.950Z,5.04
2017-04-11T04:17:08.475Z,5.04
2017-04-11T04:18:09.008Z,5.02
2017-04-11T04:19:09.536Z,4.99
2017-04-11T04:20:10.067Z,4.96
2017-04-11T04:21:10.599Z,4.93
2017-04-11T04:22:11.136Z,4.92
2017-04-11T04:23:11.818Z,4.89
2017-04-11T04:24:12.205Z,4.84
2017-04-11T04:25:12.742Z,4.85
2017-04-11T04:26:13.271Z,4.88
2017-04-11T04:27:13.800Z,4.89
2017-04-11T04:28:14.337Z,4.89
2017-04-11T04:29:14.865Z,4.91
2017-04-11T04:30:15.402Z,4.93
2017-04-11T04:31:15.932Z,4.91
2017-04-11T04:32:16.466Z,4.85
2017-04-11T04:33:17.150Z,4.77
2017-04-11T04:34:17.529Z,4.74
2017-04-11T04:35:18.060Z,4.69
2017-04-11T04:36:18.594Z,4.62
2017-04-11T04:37:19.120Z,4.54
2017-04-11T04:38:19.656Z,4.48
2017-04-11T04:39:20.188Z,4.43
2017-04-11T04:40:20.719Z,4.36
2017-04-11T04:41:21.399Z,4.29
2017-04-11T04:42:21.782Z,4.30
2017-04-11T04:43:22.313Z,4.35
2017-04-11T04:44:22.846Z,4.33
2017-04-11T04:45:23.525Z,4.33
2017-04-11T04:46:23.911Z,4.29
2017-04-11T04:47:24.441Z,4.26
2017-04-11T04:48:24.976Z,4.22
2017-04-11T04:49:25.502Z,4.17
2017-04-11T04:50:26.040Z,4.12
2017-04-11T04:51:26.718Z,4.10
2017-04-11T04:52:27.102Z,4.12
2017-04-11T04:53:27.634Z,4.17
2017-04-11T04:54:28.168Z,4.18
2017-04-11T04:55:28.690Z,4.18
2017-04-11T04:56:29.225Z,4.17
2017-04-11T04:57:29.759Z,4.17
2017-04-11T04:58:30.290Z,4.19
2017-04-11T04:59:30.838Z,4.22
2017-04-11T05:00:31.356Z,4.19
2017-04-11T05:01:31.884Z,4.19
2017-04-11T05:02:32.425Z,4.18
2017-04-11T05:03:32.978Z,4.17
2017-04-11T05:04:33.485Z,4.12
2017-04-11T05:05:34.021Z,4.08
2017-04-11T05:06:34.553Z,4.04
2017-04-11T05:07:35.083Z,4.03
2017-04-11T05:08:35.621Z,4.01
2017-04-11T05:09:36.162Z,4.04
2017-04-11T05:10:36.685Z,4.04
2017-04-11T05:11:37.215Z,4.04
2017-04-11T05:12:37.743Z,3.99
2017-04-11T05:13:38.274Z,3.92
2017-04-11T05:14:38.807Z,3.85
2017-04-11T05:15:39.340Z,3.84
2017-04-11T05:16:39.868Z,3.80
2017-04-11T05:17:40.398Z,3.77
2017-04-11T05:18:40.930Z,3.81
2017-04-11T05:19:41.610Z,3.83
2017-04-11T05:20:42.005Z,3.90
2017-04-11T05:21:42.523Z,4.00
2017-04-11T05:22:43.060Z,4.07
2017-04-11T05:23:43.636Z,4.17
2017-04-11T05:24:44.117Z,4.21
2017-04-11T05:25:44.650Z,4.22
2017-04-11T05:26:45.180Z,4.24
2017-04-11T05:27:45.713Z,4.29
2017-04-11T05:28:46.246Z,4.29
2017-04-11T05:29:47.109Z,4.30
2017-04-11T05:30:47.308Z,4.35
2017-04-11T05:31:47.837Z,4.39
2017-04-11T05:32:48.369Z,4.41
2017-04-11T05:33:48.907Z,4.50
2017-04-11T05:34:49.436Z,4.55
2017-04-11T05:35:49.964Z,4.55
2017-04-11T05:36:50.492Z,4.59
2017-04-11T05:37:51.025Z,4.60
2017-04-11T05:38:51.561Z,4.66
2017-04-11T05:39:52.087Z,4.67
2017-04-11T05:40:52.630Z,4.69
2017-04-11T05:41:53.157Z,4.70
2017-04-11T05:42:53.690Z,4.74
2017-04-11T05:43:54.230Z,4.75
2017-04-11T05:44:54.757Z,4.77
2017-04-11T05:45:55.300Z,4.75
2017-04-11T05:46:55.834Z,4.75
2017-04-11T05:47:56.367Z,4.74
2017-04-11T05:48:56.901Z,4.75
2017-04-11T05:49:57.428Z,4.71
2017-04-11T05:50:57.966Z,4.67
2017-04-11T05:51:58.490Z,4.67
2017-04-11T05:52:59.018Z,4.69
2017-04-11T05:53:59.567Z,4.71
2017-04-11T05:55:00.082Z,4.75
2017-04-11T05:56:00.608Z,4.80
2017-04-11T05:57:01.142Z,4.84
2017-04-11T05:58:01.675Z,4.87
2017-04-11T05:59:02.205Z,4.91
2017-04-11T06:00:02.734Z,4.93
2017-04-11T06:01:03.412Z,4.99
2017-04-11T06:02:03.830Z,5.03
2017-04-11T06:03:04.335Z,5.06
2017-04-11T06:04:04.861Z,5.07
2017-04-11T06:05:05.394Z,5.10
2017-04-11T06:06:05.923Z,5.14
2017-04-11T06:07:06.461Z,5.15
2017-04-11T06:08:06.989Z,5.16
2017-04-11T06:09:07.525Z,5.21
2017-04-11T06:10:08.059Z,5.23
2017-04-11T06:11:08.582Z,5.30
2017-04-11T06:12:09.111Z,5.35
2017-04-11T06:13:09.642Z,5.40
2017-04-11T06:14:10.176Z,5.44
2017-04-11T06:16:11.246Z,5.49
2017-04-11T06:17:11.770Z,5.52
2017-04-11T06:18:12.297Z,5.57
2017-04-11T06:19:12.831Z,5.60
2017-04-11T06:20:13.507Z,5.66
2017-04-11T06:21:13.892Z,5.70
2017-04-11T06:22:14.445Z,5.74
2017-04-11T06:23:14.957Z,5.70
2017-04-11T06:24:15.491Z,5.71
2017-04-11T06:25:16.028Z,5.74
2017-04-11T06:26:16.713Z,5.78
2017-04-11T06:27:17.100Z,5.81
2017-04-11T06:28:17.633Z,5.85
2017-04-11T06:29:18.171Z,5.89
2017-04-11T06:30:18.704Z,5.89
2017-04-11T06:32:19.768Z,5.95
2017-04-11T06:33:20.303Z,6.09
2017-04-11T06:34:20.830Z,6.15
2017-04-11T06:35:21.521Z,6.20
2017-04-11T06:36:21.900Z,6.33
2017-04-11T06:37:22.427Z,6.44
2017-04-11T06:38:23.107Z,6.55
2017-04-11T06:39:23.494Z,6.67
2017-04-11T06:40:24.023Z,6.90
2017-04-11T06:41:24.699Z,6.95
2017-04-11T06:42:25.082Z,7.04
2017-04-11T06:44:26.146Z,7.09
2017-04-11T06:45:26.679Z,7.23
2017-04-11T06:46:27.209Z,7.33
2017-04-11T06:47:27.741Z,7.40
2017-04-11T06:48:28.275Z,7.49
2017-04-11T06:50:29.337Z,7.51
2017-04-11T06:51:29.867Z,7.55
2017-04-11T06:52:30.398Z,7.52
2017-04-11T06:53:30.931Z,7.44
2017-04-11T06:54:31.459Z,7.44
2017-04-11T06:55:31.991Z,7.46
2017-04-11T06:56:32.526Z,7.42
2017-04-11T06:57:33.198Z,7.41
2017-04-11T06:58:33.731Z,7.45
2017-04-11T06:59:34.112Z,7.48
2017-04-11T07:00:34.651Z,7.53
2017-04-11T07:01:35.178Z,7.55
2017-04-11T07:02:35.709Z,7.52
2017-04-11T07:03:36.245Z,7.68
2017-04-11T07:04:36.772Z,7.83
2017-04-11T07:05:37.324Z,7.97
2017-04-11T07:06:37.990Z,8.06
2017-04-11T07:07:38.375Z,8.13
2017-04-11T07:09:39.443Z,7.99
2017-04-11T07:10:39.975Z,8.12
2017-04-11T07:11:40.509Z,8.23
2017-04-11T07:12:41.049Z,8.23
2017-04-11T07:13:41.568Z,8.34
2017-04-11T07:14:42.250Z,8.45
2017-04-11T07:15:42.639Z,8.42
2017-04-11T07:16:43.318Z,8.57
2017-04-11T07:17:43.697Z,8.49
2017-04-11T07:18:44.376Z,8.56
2017-04-11T07:19:44.906Z,8.69
2017-04-11T07:20:45.289Z,8.79
2017-04-11T07:21:45.819Z,8.90
2017-04-11T07:22:46.498Z,8.80
2017-04-11T07:23:46.880Z,8.67
2017-04-11T07:24:47.557Z,8.67
2017-04-11T07:25:47.943Z,8.65
2017-04-11T07:26:48.623Z,8.82
2017-04-11T07:27:49.005Z,8.94
2017-04-11T07:28:49.535Z,8.78
2017-04-11T07:29:50.063Z,8.74
2017-04-11T07:30:50.632Z,8.80
2017-04-11T07:31:51.128Z,8.86
2017-04-11T07:32:51.659Z,8.71
2017-04-11T07:33:52.187Z,8.60
2017-04-11T07:34:52.716Z,8.58
2017-04-11T07:35:53.250Z,8.65
2017-04-11T07:36:53.932Z,8.65
2017-04-11T07:37:54.315Z,8.64
2017-04-11T07:38:54.849Z,8.62
2017-04-11T07:39:55.374Z,8.78
2017-04-11T07:40:55.943Z,8.97
2017-04-11T07:41:56.437Z,9.08
2017-04-11T07:42:56.965Z,9.12
2017-04-11T07:43:57.497Z,9.22
2017-04-11T07:44:58.028Z,9.28
2017-04-11T07:45:58.557Z,9.27
2017-04-11T07:46:59.088Z,9.39
2017-04-11T07:47:59.627Z,9.38
2017-04-11T07:49:00.161Z,9.46
2017-04-11T07:50:00.692Z,9.49
2017-04-11T07:51:01.376Z,9.22
2017-04-11T07:52:01.757Z,9.12
2017-04-11T07:53:02.285Z,9.07
2017-04-11T07:54:02.815Z,9.09
2017-04-11T07:55:03.377Z,9.09
2017-04-11T07:56:03.881Z,9.20
2017-04-11T07:57:04.415Z,9.20
2017-04-11T07:58:04.947Z,9.20
2017-04-11T07:59:05.473Z,9.27
2017-04-11T08:00:06.002Z,9.32
2017-04-11T08:01:06.537Z,9.32
2017-04-11T08:02:07.070Z,9.25
2017-04-11T08:03:07.599Z,9.12
2017-04-11T08:04:08.128Z,9.12
2017-04-11T08:05:08.657Z,9.19
2017-04-11T08:06:09.191Z,9.20
2017-04-11T08:07:09.722Z,9.07
2017-04-11T08:08:10.251Z,9.05
2017-04-11T08:09:10.781Z,9.08
2017-04-11T08:10:11.315Z,9.11
2017-04-11T08:11:11.845Z,9.11
2017-04-11T08:12:12.384Z,9.28
2017-04-11T08:13:12.907Z,9.40
2017-04-11T08:14:13.439Z,9.54
2017-04-11T08:15:13.969Z,9.68
2017-04-11T08:16:14.506Z,9.66
2017-04-11T08:17:15.038Z,9.83
2017-04-11T08:18:15.567Z,9.82
2017-04-11T08:19:16.095Z,9.94
2017-04-11T08:20:16.624Z,9.93
2017-04-11T08:21:17.157Z,10.02
2017-04-11T08:23:18.225Z,10.13
2017-04-11T08:24:18.754Z,10.34
2017-04-11T08:25:19.293Z,10.16
2017-04-11T08:26:19.817Z,10.01
2017-04-11T08:27:20.352Z,9.98
2017-04-11T08:28:20.885Z,10.14
2017-04-11T08:29:21.432Z,10.32
2017-04-11T08:30:21.959Z,10.42
2017-04-11T08:31:22.489Z,10.47
2017-04-11T08:32:23.027Z,10.34
2017-04-11T08:33:23.696Z,10.38
2017-04-11T08:34:24.076Z,10.38
2017-04-11T08:35:24.608Z,10.36
2017-04-11T08:36:25.137Z,10.35
2017-04-11T08:37:25.672Z,9.91
2017-04-11T08:38:26.204Z,9.80
2017-04-11T08:39:27.005Z,9.91
2017-04-11T08:40:27.269Z,10.02
2017-04-11T08:41:27.789Z,10.02
2017-04-11T08:42:28.347Z,10.21
2017-04-11T08:43:28.857Z,10.42
2017-04-11T08:44:29.387Z,10.43
2017-04-11T08:45:29.915Z,10.45
2017-04-11T08:46:30.447Z,10.57
2017-04-11T08:47:30.989Z,10.54
2017-04-11T08:48:31.520Z,10.43
2017-04-11T08:49:32.043Z,10.24
2017-04-11T08:50:32.575Z,10.13
2017-04-11T08:51:33.114Z,9.93
2017-04-11T08:52:33.638Z,9.97
2017-04-11T08:53:34.170Z,10.23
2017-04-11T08:54:34.700Z,10.00
2017-04-11T08:55:35.224Z,10.01
2017-04-11T08:56:35.757Z,9.98
2017-04-11T08:57:36.304Z,10.01
2017-04-11T08:58:36.820Z,10.06
2017-04-11T08:59:37.387Z,10.09
2017-04-11T09:00:37.884Z,9.93
2017-04-11T09:01:38.412Z,9.83
2017-04-11T09:02:38.945Z,9.97
2017-04-11T09:03:39.511Z,10.00
2017-04-11T09:04:40.011Z,10.14
2017-04-11T09:05:40.537Z,10.17
2017-04-11T09:06:41.221Z,10.11
2017-04-11T09:07:41.612Z,10.20
2017-04-11T09:08:42.142Z,10.25
2017-04-11T09:09:42.675Z,10.17
2017-04-11T09:10:43.355Z,10.06
2017-04-11T09:11:43.761Z,10.21
2017-04-11T09:12:44.280Z,10.28
2017-04-11T09:13:44.808Z,10.24
2017-04-11T09:14:45.342Z,10.23
2017-04-11T09:15:45.874Z,10.09
2017-04-11T09:16:46.399Z,10.00
2017-04-11T09:17:46.933Z,9.97
2017-04-11T09:18:47.465Z,9.90
2017-04-11T09:19:47.991Z,10.04
2017-04-11T09:20:48.669Z,10.13
2017-04-11T09:21:49.207Z,10.09
2017-04-11T09:22:49.580Z,10.14
2017-04-11T09:23:50.259Z,10.18
2017-04-11T09:24:50.638Z,10.35
2017-04-11T09:25:51.169Z,10.60
2017-04-11T09:26:51.697Z,10.61
2017-04-11T09:27:52.376Z,10.60
2017-04-11T09:28:52.756Z,10.65
2017-04-11T09:29:53.286Z,10.63
2017-04-11T09:30:53.815Z,10.46
2017-04-11T09:31:54.350Z,10.39
2017-04-11T09:32:54.876Z,10.52
2017-04-11T09:33:55.416Z,10.50
2017-04-11T09:34:55.946Z,10.43
2017-04-11T09:35:56.471Z,10.43
2017-04-11T09:36:57.002Z,10.45
2017-04-11T09:37:57.530Z,10.61
2017-04-11T09:38:58.205Z,10.63
2017-04-11T09:39:58.591Z,10.63
2017-04-11T09:40:59.124Z,10.71
2017-04-11T09:41:59.795Z,10.56
2017-04-11T09:43:00.176Z,10.57
2017-04-11T09:44:00.705Z,10.61
2017-04-11T09:45:01.237Z,10.71
2017-04-11T09:46:01.768Z,10.77
2017-04-11T09:47:02.306Z,10.86
2017-04-11T09:48:02.861Z,10.69
2017-04-11T09:49:03.367Z,10.64
2017-04-11T09:50:03.901Z,10.61
2017-04-11T09:51:04.434Z,10.50
2017-04-11T09:52:04.971Z,10.64
2017-04-11T09:53:05.505Z,10.79
2017-04-11T09:54:06.033Z,10.84
2017-04-11T09:55:06.566Z,10.90
2017-04-11T09:56:07.102Z,11.06
2017-04-11T09:57:07.633Z,10.91
2017-04-11T09:58:08.310Z,10.95
2017-04-11T09:59:08.745Z,10.74
2017-04-11T10:00:09.218Z,10.74
2017-04-11T10:01:09.752Z,10.72
2017-04-11T10:02:10.430Z,10.43
2017-04-11T10:03:10.815Z,10.46
2017-04-11T10:04:11.343Z,10.42
2017-04-11T10:05:11.875Z,10.68
2017-04-11T10:06:12.411Z,10.84
2017-04-11T10:07:12.937Z,10.94
2017-04-11T10:08:13.471Z,10.98
2017-04-11T10:09:14.002Z,10.80
2017-04-11T10:10:14.530Z,10.80
2017-04-11T10:11:15.064Z,10.80
2017-04-11T10:12:15.591Z,10.93
2017-04-11T10:13:16.127Z,11.06
2017-04-11T10:14:16.805Z,11.29
2017-04-11T10:15:17.189Z,11.17
2017-04-11T10:16:17.869Z,11.27
2017-04-11T10:17:18.249Z,11.35
2017-04-11T10:18:18.778Z,11.24
2017-04-11T10:19:19.308Z,11.35
2017-04-11T10:20:19.840Z,11.53
2017-04-11T10:21:20.376Z,11.49
2017-04-11T10:22:20.916Z,11.24
2017-04-11T10:23:21.430Z,11.20
2017-04-11T10:24:21.972Z,11.18
2017-04-11T10:25:22.498Z,10.97
2017-04-11T10:26:23.023Z,11.18
2017-04-11T10:27:23.552Z,11.45
2017-04-11T10:28:24.080Z,11.68
2017-04-11T10:29:24.613Z,11.58
2017-04-11T10:30:25.147Z,11.47
2017-04-11T10:31:25.681Z,11.53
2017-04-11T10:32:26.222Z,11.65
2017-04-11T10:33:26.754Z,11.51
2017-04-11T10:34:27.285Z,11.39
2017-04-11T10:35:27.821Z,11.46
2017-04-11T10:36:28.349Z,11.47
2017-04-11T10:37:28.882Z,11.31
2017-04-11T10:38:29.418Z,11.42
2017-04-11T10:39:29.940Z,11.73
2017-04-11T10:40:30.471Z,11.43
2017-04-11T10:41:31.002Z,11.32
2017-04-11T10:42:31.529Z,11.61
2017-04-11T10:43:32.060Z,11.80
2017-04-11T10:44:32.593Z,12.02
2017-04-11T10:45:33.123Z,12.02
2017-04-11T10:46:33.657Z,11.98
2017-04-11T10:47:34.331Z,12.24
2017-04-11T10:48:34.715Z,12.29
2017-04-11T10:49:35.247Z,12.40
2017-04-11T10:50:35.779Z,12.40
2017-04-11T10:51:36.321Z,12.28
2017-04-11T10:52:36.994Z,12.42
2017-04-11T10:53:37.375Z,12.40
2017-04-11T10:54:37.908Z,12.35
2017-04-11T10:55:38.443Z,12.53
2017-04-11T10:56:38.968Z,12.82
2017-04-11T10:57:39.506Z,12.66
2017-04-11T10:58:40.034Z,12.50
2017-04-11T10:59:40.569Z,12.37
2017-04-11T11:00:41.098Z,12.35
2017-04-11T11:01:41.629Z,12.48
2017-04-11T11:02:42.169Z,12.46
2017-04-11T11:03:42.693Z,12.73
2017-04-11T11:04:43.220Z,13.21
2017-04-11T11:05:43.755Z,12.64
2017-04-11T11:06:44.283Z,12.57
2017-04-11T11:07:44.813Z,12.73
2017-04-11T11:08:45.339Z,13.03
2017-04-11T11:09:45.877Z,13.06
2017-04-11T11:10:46.406Z,12.91
2017-04-11T11:11:46.938Z,12.94
2017-04-11T11:12:47.468Z,12.89
2017-04-11T11:13:48.013Z,12.60
2017-04-11T11:14:48.574Z,12.36
2017-04-11T11:15:49.075Z,12.14
2017-04-11T11:16:49.755Z,12.09
2017-04-11T11:17:50.138Z,11.84
2017-04-11T11:18:50.685Z,11.56
2017-04-11T11:19:51.199Z,11.60
2017-04-11T11:20:51.730Z,11.61
2017-04-11T11:21:52.267Z,11.47
2017-04-11T11:22:52.790Z,11.50
2017-04-11T11:23:53.320Z,11.35
2017-04-11T11:24:53.859Z,11.49
2017-04-11T11:25:54.382Z,11.40
2017-04-11T11:26:54.948Z,11.43
2017-04-11T11:27:55.452Z,11.56
2017-04-11T11:28:55.969Z,11.61
2017-04-11T11:29:56.509Z,11.68
2017-04-11T11:30:57.038Z,11.61
2017-04-11T11:31:57.564Z,11.62
2017-04-11T11:32:58.109Z,11.56
2017-04-11T11:33:58.629Z,11.51
2017-04-11T11:34:59.164Z,11.64
2017-04-11T11:35:59.688Z,11.79
2017-04-11T11:37:00.365Z,12.13
2017-04-11T11:38:00.745Z,12.08
2017-04-11T11:39:01.278Z,12.14
2017-04-11T11:40:01.833Z,12.43
2017-04-11T11:41:02.331Z,12.33
2017-04-11T11:42:02.869Z,12.54
2017-04-11T11:43:03.399Z,12.50
2017-04-11T11:44:03.930Z,12.09
2017-04-11T11:45:04.613Z,12.12
2017-04-11T11:46:04.998Z,12.20
2017-04-11T11:47:05.521Z,11.94
2017-04-11T11:48:06.054Z,11.89
2017-04-11T11:49:06.581Z,11.95
2017-04-11T11:50:07.112Z,12.12
2017-04-11T11:51:07.645Z,12.09
2017-04-11T11:52:08.181Z,12.02
2017-04-11T11:53:08.713Z,12.36
2017-04-11T11:54:09.250Z,12.75
2017-04-11T11:55:09.786Z,12.84
2017-04-11T11:56:10.319Z,12.94
2017-04-11T11:57:10.853Z,13.12
2017-04-11T11:58:11.389Z,12.91
2017-04-11T11:59:12.062Z,13.14
2017-04-11T12:00:12.447Z,13.35
2017-04-11T12:01:12.977Z,13.47
2017-04-11T12:02:13.512Z,13.45
2017-04-11T12:03:14.042Z,13.28
2017-04-11T12:04:14.568Z,13.07
2017-04-11T12:05:15.098Z,13.06
2017-04-11T12:06:15.630Z,12.95
2017-04-11T12:07:16.156Z,12.69
2017-04-11T12:08:16.687Z,12.44
2017-04-11T12:09:17.218Z,12.29
2017-04-11T12:10:17.747Z,12.16
2017-04-11T12:11:18.277Z,12.01
2017-04-11T12:12:18.812Z,11.83
2017-04-11T12:13:19.351Z,11.76
2017-04-11T12:14:19.873Z,12.14
2017-04-11T12:15:20.409Z,12.40
2017-04-11T12:16:21.118Z,12.60
2017-04-11T12:17:21.466Z,12.47
2017-04-11T12:18:21.996Z,12.33
2017-04-11T12:19:22.676Z,12.28
2017-04-11T12:20:23.056Z,12.29
2017-04-11T12:21:23.588Z,12.51
2017-04-11T12:22:24.117Z,12.22
2017-04-11T12:23:24.646Z,11.87
2017-04-11T12:24:25.177Z,11.89
2017-04-11T12:25:25.718Z,12.01
2017-04-11T12:26:26.242Z,12.02
2017-04-11T12:27:26.770Z,11.97
2017-04-11T12:28:27.300Z,11.97
2017-04-11T12:29:27.829Z,12.24
2017-04-11T12:30:28.360Z,12.13
2017-04-11T12:31:29.041Z,12.43
2017-04-11T12:32:29.431Z,12.46
2017-04-11T12:33:29.960Z,12.58
2017-04-11T12:34:30.488Z,12.77
2017-04-11T12:35:31.174Z,12.69
2017-04-11T12:36:31.707Z,12.50
2017-04-11T12:37:32.089Z,12.51
2017-04-11T12:38:32.623Z,12.40
2017-04-11T12:39:33.153Z,12.50
2017-04-11T12:40:33.686Z,12.64
2017-04-11T12:41:34.216Z,12.51
2017-04-11T12:42:34.752Z,12.28
2017-04-11T12:43:35.285Z,12.22
2017-04-11T12:44:35.815Z,12.29
2017-04-11T12:45:36.357Z,12.51
2017-04-11T12:46:36.876Z,12.47
2017-04-11T12:47:37.558Z,12.57
2017-04-11T12:48:37.951Z,12.43
2017-04-11T12:49:38.472Z,12.72
2017-04-11T12:50:39.005Z,12.89
2017-04-11T12:51:39.534Z,13.00
2017-04-11T12:52:40.067Z,13.12
2017-04-11T12:53:40.599Z,13.05
2017-04-11T12:54:41.127Z,12.83
2017-04-11T12:55:41.659Z,12.75
2017-04-11T12:56:42.190Z,12.80
2017-04-11T12:57:42.756Z,12.92
2017-04-11T12:58:43.252Z,13.25
2017-04-11T12:59:43.793Z,13.31
2017-04-11T13:00:44.357Z,13.79
2017-04-11T13:01:44.851Z,14.20
2017-04-11T13:02:45.379Z,14.27
2017-04-11T13:03:45.913Z,14.33
2017-04-11T13:04:46.444Z,13.95
2017-04-11T13:05:46.967Z,13.28
2017-04-11T13:06:47.498Z,12.76
2017-04-11T13:07:48.031Z,13.05
2017-04-11T13:08:48.557Z,13.31
2017-04-11T13:09:49.101Z,13.21
2017-04-11T13:10:49.624Z,13.23
2017-04-11T13:11:50.154Z,13.06
2017-04-11T13:12:50.685Z,13.03
2017-04-11T13:13:51.228Z,13.06
2017-04-11T13:14:51.761Z,12.92
2017-04-11T13:15:52.299Z,13.03
2017-04-11T13:16:52.823Z,12.87
2017-04-11T13:17:53.364Z,12.73
2017-04-11T13:18:53.891Z,12.72
2017-04-11T13:19:54.421Z,12.55
2017-04-11T13:20:55.100Z,12.58
2017-04-11T13:21:55.482Z,12.73